createdAt,value
2018-03-04T00:01:15.183Z,4.32
2018-03-04T00:03:47.356Z,5.50
2018-03-04T00:06:13.571Z,5.40
2018-03-04T00:08:39.755Z,7.62
2018-03-04T00:11:06.025Z,6.10
2018-03-04T00:13:32.198Z,4.60
2018-03-04T00:15:58.606Z,5.47
2018-03-04T00:18:24.881Z,5.68
2018-03-04T00:20:51.122Z,6.53
2018-03-04T00:23:17.320Z,7.05
2018-03-04T00:25:43.520Z,6.37
2018-03-04T00:28:09.713Z,5.07
2018-03-04T00:30:35.923Z,4.97
2018-03-04T00:33:02.130Z,3.90
2018-03-04T00:35:28.292Z,6.90
2018-03-04T00:37:54.556Z,4.55
2018-03-04T00:40:20.978Z,7.10
2018-03-04T00:42:47.220Z,6.53
2018-03-04T00:45:13.418Z,6.57
2018-03-04T00:47:39.604Z,4.60
2018-03-04T00:50:05.885Z,5.87
2018-03-04T00:52:32.081Z,5.47
2018-03-04T00:54:58.259Z,6.05
2018-03-04T00:57:24.483Z,6.97
2018-03-04T00:59:50.654Z,5.40
2018-03-04T01:02:16.881Z,6.43
2018-03-04T01:04:43.067Z,4.55
2018-03-04T01:07:09.306Z,4.60
2018-03-04T01:09:35.525Z,6.75
2018-03-04T01:12:01.916Z,5.28
2018-03-04T01:14:28.105Z,6.10
2018-03-04T01:16:54.339Z,6.20
2018-03-04T01:19:20.496Z,6.05
2018-03-04T01:21:46.719Z,6.95
2018-03-04T01:24:12.904Z,5.30
2018-03-04T01:26:39.113Z,6.60
2018-03-04T01:29:05.319Z,5.45
2018-03-04T01:31:31.488Z,6.93
2018-03-04T01:33:57.708Z,5.72
2018-03-04T01:36:24.126Z,7.65
2018-03-04T01:38:50.316Z,5.25
2018-03-04T01:41:16.509Z,6.32
2018-03-04T01:43:42.726Z,5.95
2018-03-04T01:46:08.976Z,6.93
2018-03-04T01:48:35.158Z,5.00
2018-03-04T01:51:01.423Z,8.73
2018-03-04T01:53:27.651Z,5.15
2018-03-04T01:55:53.850Z,5.43
2018-03-04T01:58:20.382Z,4.93
2018-03-04T02:00:46.563Z,6.03
2018-03-04T02:03:12.769Z,6.25
2018-03-04T02:05:38.973Z,7.50
2018-03-04T02:08:05.153Z,9.77
2018-03-04T02:10:31.328Z,5.70
2018-03-04T02:12:57.509Z,4.22
2018-03-04T02:15:23.772Z,5.70
2018-03-04T02:17:49.946Z,7.12
2018-03-04T02:20:16.140Z,6.35
2018-03-04T02:22:42.337Z,7.07
2018-03-04T02:25:08.753Z,6.62
2018-03-04T02:27:34.973Z,6.10
2018-03-04T02:30:01.150Z,6.10
2018-03-04T02:32:27.586Z,5.70
2018-03-04T02:34:53.780Z,5.60
2018-03-04T02:37:19.971Z,5.75
2018-03-04T02:39:46.197Z,4.40
2018-03-04T02:42:12.377Z,5.90
2018-03-04T02:44:38.917Z,5.87
2018-03-04T02:47:05.083Z,5.40
2018-03-04T02:49:31.279Z,5.10
2018-03-04T02:51:57.504Z,6.47
2018-03-04T02:54:23.741Z,7.05
2018-03-04T02:56:49.995Z,7.95
2018-03-04T02:59:16.168Z,7.35
2018-03-04T03:01:42.335Z,5.80
2018-03-04T03:04:08.534Z,5.78
2018-03-04T03:06:34.774Z,5.18
2018-03-04T03:09:00.957Z,5.55
2018-03-04T03:11:27.384Z,5.28
2018-03-04T03:13:53.566Z,6.07
2018-03-04T03:16:19.783Z,6.12
2018-03-04T03:18:45.986Z,5.07
2018-03-04T03:21:12.178Z,5.70
2018-03-04T03:23:38.355Z,6.20
2018-03-04T03:26:04.543Z,6.93
2018-03-04T03:28:30.760Z,6.18
2018-03-04T03:30:56.960Z,4.97
2018-03-04T03:33:23.520Z,6.62
2018-03-04T03:35:49.768Z,5.47
2018-03-04T03:38:16.240Z,7.03
2018-03-04T03:40:42.428Z,7.00
2018-03-04T03:43:08.899Z,4.50
2018-03-04T03:45:35.095Z,5.87
2018-03-04T03:48:01.321Z,7.22
2018-03-04T03:50:27.481Z,6.60
2018-03-04T03:52:53.677Z,5.55
2018-03-04T03:55:19.906Z,6.50
2018-03-04T03:57:46.074Z,6.75
2018-03-04T04:00:12.342Z,5.40
2018-03-04T04:02:38.827Z,6.25
2018-03-04T04:05:05.015Z,7.85
2018-03-04T04:07:31.190Z,5.65
2018-03-04T04:09:57.395Z,6.10
2018-03-04T04:12:23.622Z,6.15
2018-03-04T04:14:50.012Z,7.18
2018-03-04T04:17:16.195Z,8.00
2018-03-04T04:19:42.400Z,7.50
2018-03-04T04:22:08.615Z,5.12
2018-03-04T04:24:34.792Z,6.60
2018-03-04T04:27:01.000Z,6.65
2018-03-04T04:29:27.409Z,6.28
2018-03-04T04:31:53.608Z,6.30
2018-03-04T04:34:19.771Z,6.32
2018-03-04T04:36:46.238Z,5.70
2018-03-04T04:39:12.416Z,6.30
2018-03-04T04:41:38.565Z,7.32
2018-03-04T04:44:04.836Z,7.82
2018-03-04T04:46:31.028Z,6.15
2018-03-04T04:48:57.194Z,4.68
2018-03-04T04:51:23.382Z,5.40
2018-03-04T04:53:49.657Z,8.88
2018-03-04T04:56:15.857Z,5.65
2018-03-04T04:58:42.039Z,6.43
2018-03-04T05:01:08.238Z,7.55
2018-03-04T05:03:34.636Z,8.40
2018-03-04T05:06:00.857Z,8.02
2018-03-04T05:08:27.257Z,6.87
2018-03-04T05:10:53.459Z,5.82
2018-03-04T05:13:19.629Z,7.45
2018-03-04T05:15:45.838Z,7.80
2018-03-04T05:18:12.000Z,6.03
2018-03-04T05:20:38.183Z,7.60
2018-03-04T05:23:04.391Z,11.95
2018-03-04T05:25:30.548Z,8.63
2018-03-04T05:27:56.789Z,7.05
2018-03-04T05:30:22.945Z,7.32
2018-03-04T05:32:49.123Z,6.70
2018-03-04T05:35:15.603Z,6.60
2018-03-04T05:37:41.888Z,7.10
2018-03-04T05:40:08.078Z,7.37
2018-03-04T05:42:34.281Z,11.23
2018-03-04T05:45:00.525Z,9.77
2018-03-04T05:47:27.060Z,6.12
2018-03-04T05:49:53.248Z,8.00
2018-03-04T05:52:19.453Z,5.78
2018-03-04T05:54:45.734Z,8.60
2018-03-04T05:57:11.930Z,6.65
2018-03-04T05:59:38.123Z,6.53
2018-03-04T06:02:04.345Z,7.12
2018-03-04T06:04:30.547Z,7.00
2018-03-04T06:06:57.716Z,6.80
2018-03-04T06:09:23.927Z,7.18
2018-03-04T06:11:50.158Z,7.97
2018-03-04T06:14:16.366Z,6.53
2018-03-04T06:16:42.553Z,6.93
2018-03-04T06:19:08.764Z,7.97
2018-03-04T06:21:34.965Z,8.43
2018-03-04T06:24:01.169Z,8.13
2018-03-04T06:26:27.362Z,8.52
2018-03-04T06:28:53.598Z,6.55
2018-03-04T06:31:19.808Z,7.20
2018-03-04T06:33:46.307Z,9.77
2018-03-04T06:36:12.536Z,7.57
2018-03-04T06:38:38.726Z,7.85
2018-03-04T06:41:04.932Z,8.20
2018-03-04T06:43:31.428Z,6.37
2018-03-04T06:45:57.875Z,8.23
2018-03-04T06:48:24.106Z,8.32
2018-03-04T06:50:50.350Z,9.50
2018-03-04T06:53:16.553Z,9.18
2018-03-04T06:55:43.084Z,6.72
2018-03-04T06:58:09.283Z,6.95
2018-03-04T07:00:35.432Z,7.68
2018-03-04T07:03:01.669Z,7.30
2018-03-04T07:05:27.907Z,7.82
2018-03-04T07:07:54.097Z,9.05
2018-03-04T07:10:20.324Z,8.00
2018-03-04T07:12:46.522Z,6.00
2018-03-04T07:15:12.746Z,9.70
2018-03-04T07:17:38.961Z,7.80
2018-03-04T07:20:05.277Z,7.87
2018-03-04T07:22:31.477Z,7.97
2018-03-04T07:24:57.682Z,8.80
2018-03-04T07:27:23.884Z,9.57
2018-03-04T07:29:50.164Z,7.12
2018-03-04T07:32:16.375Z,11.80
2018-03-04T07:34:42.572Z,8.38
2018-03-04T07:37:08.789Z,10.50
2018-03-04T07:39:35.101Z,9.93
2018-03-04T07:42:01.343Z,7.95
2018-03-04T07:44:27.558Z,7.20
2018-03-04T07:46:53.856Z,9.95
2018-03-04T07:51:52.179Z,9.15
2018-03-04T07:54:18.701Z,8.30
2018-03-04T07:56:44.929Z,8.75
2018-03-04T07:59:11.120Z,8.55
2018-03-04T08:01:37.590Z,6.78
2018-03-04T08:04:03.807Z,10.73
2018-03-04T08:06:29.978Z,7.57
2018-03-04T08:08:56.227Z,7.43
2018-03-04T08:11:22.485Z,7.97
2018-03-04T08:13:48.934Z,10.30
2018-03-04T08:16:15.155Z,7.07
2018-03-04T08:18:41.362Z,7.73
2018-03-04T08:21:07.554Z,9.90
2018-03-04T08:23:33.783Z,8.65
2018-03-04T08:26:12.250Z,8.68
2018-03-04T08:28:38.517Z,10.07
2018-03-04T08:31:04.729Z,9.00
2018-03-04T08:33:30.895Z,10.80
2018-03-04T08:35:57.100Z,9.30
2018-03-04T08:38:23.294Z,6.22
2018-03-04T08:40:49.475Z,9.05
2018-03-04T08:43:15.662Z,9.82
2018-03-04T08:45:41.866Z,9.38
2018-03-04T08:48:08.076Z,7.25
2018-03-04T08:50:34.550Z,7.57
2018-03-04T08:53:00.811Z,7.40
2018-03-04T08:55:27.298Z,9.68
2018-03-04T08:57:53.517Z,10.27
2018-03-04T09:00:19.728Z,8.10
2018-03-04T09:02:45.928Z,9.73
2018-03-04T09:05:12.091Z,9.27
2018-03-04T09:07:38.368Z,9.97
2018-03-04T09:10:04.775Z,9.27
2018-03-04T09:12:30.977Z,10.88
2018-03-04T09:14:57.221Z,8.95
2018-03-04T09:17:23.421Z,9.38
2018-03-04T09:19:49.917Z,8.48
2018-03-04T09:22:16.128Z,8.82
2018-03-04T09:24:42.321Z,9.03
2018-03-04T09:27:08.889Z,9.60
2018-03-04T09:29:35.116Z,9.10
2018-03-04T09:32:01.652Z,7.30
2018-03-04T09:34:27.838Z,7.93
2018-03-04T09:36:54.033Z,12.30
2018-03-04T09:39:20.218Z,8.80
2018-03-04T09:41:46.468Z,7.93
2018-03-04T09:44:12.694Z,8.68
2018-03-04T09:46:38.874Z,8.20
2018-03-04T09:49:05.092Z,8.55
2018-03-04T09:51:31.322Z,11.07
2018-03-04T09:53:57.593Z,6.72
2018-03-04T09:56:23.793Z,7.85
2018-03-04T09:58:50.261Z,9.32
2018-03-04T10:01:16.480Z,8.15
2018-03-04T10:03:42.763Z,10.00
2018-03-04T10:08:40.807Z,7.47
2018-03-04T10:11:07.044Z,8.65
2018-03-04T10:13:33.267Z,10.82
2018-03-04T10:15:59.662Z,8.30
2018-03-04T10:18:26.126Z,10.60
2018-03-04T10:20:52.301Z,11.53
2018-03-04T10:23:18.791Z,8.05
2018-03-04T10:25:45.029Z,8.75
2018-03-04T10:28:11.256Z,8.80
2018-03-04T10:30:37.492Z,7.17
2018-03-04T10:33:03.677Z,13.05
2018-03-04T10:35:30.246Z,8.10
2018-03-04T10:37:56.495Z,10.17
2018-03-04T10:40:22.727Z,9.67
2018-03-04T10:42:48.928Z,8.77
2018-03-04T10:45:15.191Z,9.20
2018-03-04T10:47:41.397Z,10.07
2018-03-04T10:50:07.594Z,11.90
2018-03-04T10:52:33.832Z,10.87
2018-03-04T10:55:00.062Z,6.97
2018-03-04T10:57:26.314Z,10.20
2018-03-04T10:59:52.536Z,9.15
2018-03-04T11:02:22.699Z,8.70
2018-03-04T11:04:48.992Z,8.93
2018-03-04T11:07:15.224Z,9.90
2018-03-04T11:09:41.458Z,11.03
2018-03-04T11:12:07.707Z,9.40
2018-03-04T11:14:33.886Z,10.67
2018-03-04T11:17:00.134Z,14.10
2018-03-04T11:19:26.359Z,9.83
2018-03-04T11:21:52.571Z,9.77
2018-03-04T11:24:18.804Z,9.43
2018-03-04T11:26:45.049Z,13.60
2018-03-04T11:29:11.307Z,13.17
2018-03-04T11:31:37.525Z,9.30
2018-03-04T11:34:03.756Z,9.93
2018-03-04T11:36:29.925Z,12.17
2018-03-04T11:38:56.371Z,9.63
2018-03-04T11:41:22.560Z,12.37
2018-03-04T11:43:48.823Z,9.70
2018-03-04T11:46:15.092Z,13.73
2018-03-04T11:48:41.283Z,10.20
2018-03-04T11:51:07.477Z,9.73
2018-03-04T11:53:33.711Z,8.97
2018-03-04T11:55:59.974Z,10.50
2018-03-04T11:58:26.448Z,11.50
2018-03-04T12:00:52.706Z,11.80
2018-03-04T12:03:18.884Z,10.07
2018-03-04T12:05:45.069Z,10.23
2018-03-04T12:08:11.330Z,9.50
2018-03-04T12:10:37.851Z,10.23
2018-03-04T12:13:10.052Z,8.87
2018-03-04T12:15:36.657Z,15.70
2018-03-04T12:18:02.806Z,8.90
2018-03-04T12:20:29.294Z,9.20
2018-03-04T12:22:55.544Z,10.87
2018-03-04T12:25:21.739Z,10.47
2018-03-04T12:27:47.950Z,9.97
2018-03-04T12:30:14.158Z,10.37
2018-03-04T12:32:40.375Z,10.83
2018-03-04T12:35:06.560Z,10.43
2018-03-04T12:37:33.013Z,11.70
2018-03-04T12:39:59.446Z,11.47
2018-03-04T12:42:25.642Z,9.50
2018-03-04T12:44:51.803Z,9.87
2018-03-04T12:47:18.024Z,11.00
2018-03-04T12:49:44.300Z,12.27
2018-03-04T12:52:10.487Z,11.43
2018-03-04T12:54:36.788Z,10.00
2018-03-04T12:57:03.314Z,9.27
2018-03-04T12:59:29.557Z,10.30
2018-03-04T13:01:55.761Z,10.90
2018-03-04T13:04:21.979Z,9.57
2018-03-04T13:06:48.220Z,10.10
2018-03-04T13:09:14.412Z,10.87
2018-03-04T13:11:40.675Z,10.10
2018-03-04T13:14:07.123Z,9.77
2018-03-04T13:16:33.687Z,11.43
2018-03-04T13:18:59.870Z,10.30
2018-03-04T13:21:26.358Z,10.37
2018-03-04T13:23:52.551Z,12.60
2018-03-04T13:26:19.018Z,10.30
2018-03-04T13:28:45.273Z,13.40
2018-03-04T13:31:11.782Z,10.83
2018-03-04T13:33:38.429Z,10.67
2018-03-04T13:36:04.633Z,8.90
2018-03-04T13:38:30.792Z,10.80
2018-03-04T13:40:57.239Z,8.90
2018-03-04T13:43:23.670Z,10.37
2018-03-04T13:45:50.068Z,9.33
2018-03-04T13:48:16.256Z,10.93
2018-03-04T13:50:42.500Z,9.50
2018-03-04T13:53:08.904Z,9.10
2018-03-04T13:55:35.060Z,10.50
2018-03-04T13:58:01.319Z,10.50
2018-03-04T14:00:27.579Z,12.60
2018-03-04T14:02:53.763Z,10.87
2018-03-04T14:05:19.954Z,10.53
2018-03-04T14:07:46.207Z,11.90
2018-03-04T14:10:12.463Z,10.20
2018-03-04T14:12:38.608Z,10.80
2018-03-04T14:15:04.996Z,10.10
2018-03-04T14:17:31.232Z,10.77
2018-03-04T14:19:57.411Z,7.80
2018-03-04T14:22:23.900Z,9.73
2018-03-04T14:24:50.111Z,10.60
2018-03-04T14:27:16.319Z,10.00
2018-03-04T14:29:42.524Z,12.00
2018-03-04T14:32:08.710Z,10.00
2018-03-04T14:34:34.932Z,11.97
2018-03-04T14:37:01.097Z,11.93
2018-03-04T14:39:27.349Z,9.30
2018-03-04T14:41:53.608Z,12.70
2018-03-04T14:44:19.866Z,9.40
2018-03-04T14:46:46.054Z,9.33
2018-03-04T14:49:12.243Z,10.13
2018-03-04T14:51:38.442Z,10.60
2018-03-04T14:54:04.665Z,9.50
2018-03-04T14:56:30.844Z,10.70
2018-03-04T14:58:57.040Z,10.40
2018-03-04T15:01:23.246Z,10.00
2018-03-04T15:03:49.501Z,12.10
2018-03-04T15:06:15.728Z,8.87
2018-03-04T15:08:41.910Z,8.60
2018-03-04T15:11:08.158Z,11.50
2018-03-04T15:13:34.364Z,10.80
2018-03-04T15:16:00.557Z,11.23
2018-03-04T15:18:27.043Z,9.73
2018-03-04T15:20:53.200Z,9.97
2018-03-04T15:23:19.625Z,11.50
2018-03-04T15:25:46.049Z,11.60
2018-03-04T15:28:12.568Z,12.27
2018-03-04T15:30:39.007Z,10.87
2018-03-04T15:33:05.224Z,8.87
2018-03-04T15:35:31.404Z,12.53
2018-03-04T15:37:57.894Z,12.93
2018-03-04T15:40:24.161Z,11.07
2018-03-04T15:42:50.348Z,11.30
2018-03-04T15:45:16.524Z,13.37
2018-03-04T15:47:42.741Z,10.77
2018-03-04T15:50:08.948Z,12.00
2018-03-04T15:52:35.087Z,11.50
2018-03-04T15:55:01.269Z,10.07
2018-03-04T15:57:27.534Z,10.30
2018-03-04T15:59:53.818Z,10.50
2018-03-04T16:02:20.055Z,13.73
2018-03-04T16:04:46.246Z,10.43
2018-03-04T16:07:12.476Z,13.83
2018-03-04T16:09:38.674Z,11.70
2018-03-04T16:12:04.824Z,12.03
2018-03-04T16:14:31.008Z,12.73
2018-03-04T16:16:57.231Z,12.73
2018-03-04T16:19:23.667Z,11.70
2018-03-04T16:21:49.836Z,13.40
2018-03-04T16:24:16.023Z,11.03
2018-03-04T16:26:42.557Z,19.50
2018-03-04T16:29:08.763Z,13.00
2018-03-04T16:31:34.964Z,14.10
2018-03-04T16:34:01.219Z,12.37
2018-03-04T16:36:27.410Z,10.80
2018-03-04T16:38:53.588Z,11.27
2018-03-04T16:41:19.903Z,13.00
2018-03-04T16:43:46.073Z,14.13
2018-03-04T16:46:12.277Z,11.70
2018-03-04T16:48:38.486Z,13.32
2018-03-04T16:51:04.770Z,12.27
2018-03-04T16:53:31.270Z,12.43
2018-03-04T16:55:57.455Z,15.40
2018-03-04T16:58:23.723Z,12.20
2018-03-04T17:00:51.189Z,13.40
2018-03-04T17:03:17.371Z,14.23
2018-03-04T17:05:43.538Z,11.40
2018-03-04T17:08:10.077Z,13.93
2018-03-04T17:10:36.327Z,11.40
2018-03-04T17:13:02.532Z,12.67
2018-03-04T17:15:28.741Z,12.53
2018-03-04T17:17:54.911Z,10.13
2018-03-04T17:20:21.131Z,10.87
2018-03-04T17:22:47.392Z,10.20
2018-03-04T17:25:13.574Z,12.73
2018-03-04T17:27:39.736Z,14.97
2018-03-04T17:30:05.961Z,10.97
2018-03-04T17:32:32.271Z,11.17
2018-03-04T17:34:58.467Z,12.00
2018-03-04T17:37:24.717Z,11.40
2018-03-04T17:39:50.905Z,11.60
2018-03-04T17:42:17.056Z,9.77
2018-03-04T17:44:43.253Z,15.02
2018-03-04T17:47:09.496Z,12.20
2018-03-04T17:49:35.695Z,11.67
2018-03-04T17:52:01.902Z,14.33
2018-03-04T17:54:28.413Z,15.67
2018-03-04T17:56:54.564Z,11.60
2018-03-04T17:59:20.748Z,13.40
2018-03-04T18:01:47.008Z,11.20
2018-03-04T18:04:13.201Z,14.83
2018-03-04T18:06:39.482Z,14.80
2018-03-04T18:09:05.847Z,9.63
2018-03-04T18:11:32.015Z,10.70
2018-03-04T18:13:58.234Z,11.40
2018-03-04T18:16:24.440Z,11.83
2018-03-04T18:18:50.660Z,16.10
2018-03-04T18:21:17.121Z,12.07
2018-03-04T18:23:43.327Z,13.13
2018-03-04T18:26:09.493Z,12.60
2018-03-04T18:28:35.685Z,12.67
2018-03-04T18:31:01.876Z,12.30
2018-03-04T18:33:28.371Z,12.07
2018-03-04T18:35:54.554Z,11.53
2018-03-04T18:38:20.754Z,10.97
2018-03-04T18:40:46.976Z,10.57
2018-03-04T18:43:13.212Z,10.57
2018-03-04T18:45:39.369Z,10.60
2018-03-04T18:48:05.537Z,10.83
2018-03-04T18:50:32.066Z,12.67
2018-03-04T18:52:58.467Z,11.57
2018-03-04T18:55:24.612Z,11.63
2018-03-04T18:57:50.861Z,12.03
2018-03-04T19:00:17.045Z,12.27
2018-03-04T19:02:43.275Z,13.00
2018-03-04T19:05:09.527Z,12.87
2018-03-04T19:07:36.072Z,12.43
2018-03-04T19:10:02.329Z,15.23
2018-03-04T19:12:31.703Z,13.40
2018-03-04T19:14:57.938Z,11.27
2018-03-04T19:17:24.122Z,15.03
2018-03-04T19:19:50.342Z,11.83
2018-03-04T19:22:16.531Z,11.77
2018-03-04T19:24:42.817Z,12.87
2018-03-04T19:27:09.056Z,12.40
2018-03-04T19:29:35.244Z,12.70
2018-03-04T19:32:01.406Z,10.50
2018-03-04T19:34:27.608Z,10.63
2018-03-04T19:36:53.778Z,12.33
2018-03-04T19:39:19.970Z,11.90
2018-03-04T19:41:46.142Z,12.83
2018-03-04T19:44:12.361Z,11.00
2018-03-04T19:46:38.902Z,13.50
2018-03-04T19:49:05.078Z,12.40
2018-03-04T19:51:31.307Z,11.67
2018-03-04T19:53:57.522Z,14.10
2018-03-04T19:56:23.740Z,12.20
2018-03-04T19:58:49.938Z,11.67
2018-03-04T20:01:16.145Z,12.10
2018-03-04T20:03:42.348Z,10.83
2018-03-04T20:06:15.554Z,11.93
2018-03-04T20:08:41.772Z,12.30
2018-03-04T20:11:08.247Z,13.10
2018-03-04T20:13:34.388Z,13.50
2018-03-04T20:16:00.904Z,13.33
2018-03-04T20:18:27.116Z,13.70
2018-03-04T20:20:53.307Z,12.83
2018-03-04T20:23:19.507Z,11.90
2018-03-04T20:25:45.659Z,14.30
2018-03-04T20:28:11.846Z,12.23
2018-03-04T20:30:38.019Z,14.17
2018-03-04T20:33:04.214Z,12.67
2018-03-04T20:35:30.387Z,13.03
2018-03-04T20:37:56.861Z,14.90
2018-03-04T20:40:23.027Z,11.27
2018-03-04T20:42:49.516Z,14.40
2018-03-04T20:45:15.679Z,13.90
2018-03-04T20:47:41.848Z,13.00
2018-03-04T20:50:08.044Z,15.70
2018-03-04T20:52:34.242Z,12.70
2018-03-04T20:55:00.453Z,14.80
2018-03-04T20:57:26.618Z,13.30
2018-03-04T20:59:53.115Z,13.67
2018-03-04T21:02:19.410Z,10.93
2018-03-04T21:04:45.627Z,15.20
2018-03-04T21:07:11.851Z,14.17
2018-03-04T21:09:37.995Z,10.70
2018-03-04T21:12:04.209Z,11.80
2018-03-04T21:14:36.578Z,13.23
2018-03-04T21:17:02.767Z,12.53
2018-03-04T21:19:28.949Z,12.13
2018-03-04T21:21:55.111Z,15.50
2018-03-04T21:24:21.333Z,10.97
2018-03-04T21:26:47.507Z,15.53
2018-03-04T21:29:13.799Z,12.68
2018-03-04T21:31:40.045Z,13.17
2018-03-04T21:34:06.284Z,12.90
2018-03-04T21:36:32.439Z,13.03
2018-03-04T21:38:58.602Z,13.27
2018-03-04T21:41:24.798Z,12.57
2018-03-04T21:43:51.264Z,13.53
2018-03-04T21:46:17.454Z,10.87
2018-03-04T21:48:43.636Z,11.87
2018-03-04T21:51:10.156Z,11.90
2018-03-04T21:53:36.354Z,12.60
2018-03-04T21:56:02.530Z,11.10
2018-03-04T21:58:28.760Z,13.47
2018-03-04T22:00:55.269Z,12.93
2018-03-04T22:03:21.482Z,14.27
2018-03-04T22:05:47.694Z,12.83
2018-03-04T22:08:13.923Z,11.97
2018-03-04T22:10:46.922Z,11.77
2018-03-04T22:13:13.481Z,12.50
2018-03-04T22:15:39.636Z,13.03
2018-03-04T22:18:05.853Z,12.90
2018-03-04T22:20:32.032Z,14.27
2018-03-04T22:22:58.490Z,13.10
2018-03-04T22:25:24.922Z,13.53
2018-03-04T22:27:51.094Z,13.47
2018-03-04T22:30:17.273Z,12.70
2018-03-04T22:32:43.420Z,13.07
2018-03-04T22:35:09.619Z,18.53
2018-03-04T22:37:35.839Z,17.00
2018-03-04T22:40:02.075Z,14.20
2018-03-04T22:42:28.274Z,12.30
2018-03-04T22:44:54.499Z,16.27
2018-03-04T22:47:20.709Z,11.12
2018-03-04T22:49:46.911Z,13.40
2018-03-04T22:52:13.127Z,11.40
2018-03-04T22:54:39.275Z,14.23
2018-03-04T22:57:05.546Z,14.10
2018-03-04T22:59:31.722Z,14.17
2018-03-04T23:01:57.954Z,13.25
2018-03-04T23:04:24.108Z,12.87
2018-03-04T23:06:50.310Z,12.10
2018-03-04T23:09:16.533Z,11.60
2018-03-04T23:11:42.736Z,14.17
2018-03-04T23:14:08.944Z,14.20
2018-03-04T23:16:35.101Z,12.10
2018-03-04T23:19:01.249Z,14.33
2018-03-04T23:21:27.559Z,13.90
2018-03-04T23:23:53.751Z,14.30
2018-03-04T23:26:19.923Z,14.43
2018-03-04T23:28:46.146Z,11.37
2018-03-04T23:31:12.289Z,14.37
2018-03-04T23:33:38.484Z,15.27
2018-03-04T23:36:04.664Z,13.93
2018-03-04T23:38:31.159Z,13.45
2018-03-04T23:40:57.409Z,13.50
2018-03-04T23:43:23.581Z,13.82
2018-03-04T23:45:49.736Z,16.00
2018-03-04T23:48:15.950Z,15.82
2018-03-04T23:50:42.120Z,12.80
2018-03-04T23:53:08.326Z,12.73
2018-03-04T23:55:34.856Z,12.80
2018-03-04T23:58:01.082Z,15.23
